createdAt,value
2019-04-27T00:02:13.465Z,13.80
2019-04-27T00:04:59.654Z,13.80
2019-04-27T00:07:59.472Z,13.80
2019-04-27T00:10:39.171Z,13.80
2019-04-27T00:13:09.937Z,13.80
2019-04-27T00:15:54.023Z,13.80
2019-04-27T00:18:45.487Z,13.80
2019-04-27T00:21:33.433Z,13.80
2019-04-27T00:24:03.546Z,13.80
2019-04-27T00:26:34.876Z,13.80
2019-04-27T00:29:05.102Z,13.80
2019-04-27T00:31:35.586Z,13.80
2019-04-27T00:34:05.842Z,13.80
2019-04-27T00:36:43.573Z,13.80
2019-04-27T00:39:51.075Z,13.80
2019-04-27T00:42:23.174Z,13.80
2019-04-27T00:44:54.202Z,13.70
2019-04-27T00:47:24.710Z,13.60
2019-04-27T00:49:55.058Z,13.60
2019-04-27T00:52:25.406Z,13.60
2019-04-27T00:54:55.550Z,13.60
2019-04-27T00:57:43.526Z,13.60
2019-04-27T01:00:33.323Z,13.60
2019-04-27T01:03:09.233Z,13.60
2019-04-27T01:05:39.387Z,13.60
2019-04-27T01:08:09.546Z,13.50
2019-04-27T01:10:39.763Z,13.50
2019-04-27T01:13:10.090Z,13.40
2019-04-27T01:15:40.231Z,13.40
2019-04-27T01:18:14.597Z,13.30
2019-04-27T01:20:42.334Z,13.30
2019-04-27T01:23:12.463Z,13.30
2019-04-27T01:26:09.631Z,13.30
2019-04-27T01:28:51.933Z,13.30
2019-04-27T01:31:22.119Z,13.30
2019-04-27T01:33:52.223Z,13.30
2019-04-27T01:36:22.373Z,13.30
2019-04-27T01:38:52.485Z,13.30
2019-04-27T01:41:24.003Z,13.30
2019-04-27T01:43:54.202Z,13.30
2019-04-27T01:46:24.283Z,13.30
2019-04-27T01:48:54.315Z,13.30
2019-04-27T01:51:24.463Z,13.20
2019-04-27T01:53:54.499Z,13.20
2019-04-27T01:56:24.632Z,13.20
2019-04-27T01:58:54.771Z,13.20
2019-04-27T02:01:48.824Z,13.20
2019-04-27T02:04:34.843Z,13.20
2019-04-27T02:07:06.998Z,13.30
2019-04-27T02:09:38.671Z,13.20
2019-04-27T02:12:09.421Z,13.20
2019-04-27T02:14:39.826Z,13.20
2019-04-27T02:17:09.892Z,13.30
2019-04-27T02:19:41.289Z,13.30
2019-04-27T02:22:11.444Z,13.30
2019-04-27T02:24:41.575Z,13.30
2019-04-27T02:27:12.617Z,13.30
2019-04-27T02:30:00.563Z,13.20
2019-04-27T02:32:36.050Z,13.20
2019-04-27T02:35:10.619Z,13.20
2019-04-27T02:37:40.813Z,13.20
2019-04-27T02:40:46.556Z,13.20
2019-04-27T02:43:19.431Z,13.20
2019-04-27T02:45:50.402Z,13.20
2019-04-27T02:48:20.820Z,13.10
2019-04-27T02:50:53.418Z,13.10
2019-04-27T02:53:42.503Z,13.20
2019-04-27T02:56:13.797Z,13.20
2019-04-27T02:58:43.941Z,13.20
2019-04-27T03:01:14.112Z,13.30
2019-04-27T03:03:44.666Z,13.30
2019-04-27T03:06:15.020Z,13.30
2019-04-27T03:08:49.177Z,13.30
2019-04-27T03:11:16.988Z,13.30
2019-04-27T03:14:29.492Z,13.30
2019-04-27T03:17:22.679Z,13.30
2019-04-27T03:20:06.287Z,13.30
2019-04-27T03:22:41.627Z,13.30
2019-04-27T03:25:32.589Z,13.20
2019-04-27T03:28:11.436Z,13.20
2019-04-27T03:30:43.449Z,13.20
2019-04-27T03:33:14.736Z,13.20
2019-04-27T03:35:45.490Z,13.20
2019-04-27T03:38:19.530Z,13.20
2019-04-27T03:40:50.714Z,13.30
2019-04-27T03:43:23.209Z,13.20
2019-04-27T03:45:54.396Z,13.30
2019-04-27T03:48:24.592Z,13.30
2019-04-27T03:51:22.875Z,13.20
2019-04-27T03:54:11.086Z,13.30
2019-04-27T03:56:45.724Z,13.20
2019-04-27T03:59:22.705Z,13.20
2019-04-27T04:01:52.857Z,13.20
2019-04-27T04:04:23.001Z,13.30
2019-04-27T04:06:53.523Z,13.20
2019-04-27T04:09:40.160Z,13.20
2019-04-27T04:12:30.316Z,13.30
2019-04-27T04:15:02.118Z,13.30
2019-04-27T04:17:32.815Z,13.20
2019-04-27T04:20:03.115Z,13.30
2019-04-27T04:22:33.351Z,13.30
2019-04-27T04:25:03.823Z,13.30
2019-04-27T04:27:33.964Z,13.20
2019-04-27T04:30:04.928Z,13.20
2019-04-27T04:32:35.058Z,13.20
2019-04-27T04:35:25.720Z,13.20
2019-04-27T04:37:56.307Z,13.20
2019-04-27T04:40:39.952Z,13.20
2019-04-27T04:43:15.390Z,13.20
2019-04-27T04:46:13.975Z,13.20
2019-04-27T04:48:44.109Z,13.20
2019-04-27T04:51:14.291Z,13.20
2019-04-27T04:53:44.837Z,13.20
2019-04-27T04:56:15.024Z,13.20
2019-04-27T04:58:45.344Z,13.20
2019-04-27T05:01:15.856Z,13.20
2019-04-27T05:03:46.265Z,13.20
2019-04-27T05:06:16.618Z,13.30
2019-04-27T05:08:47.164Z,13.20
2019-04-27T05:11:17.240Z,13.30
2019-04-27T05:13:47.426Z,13.30
2019-04-27T05:16:18.945Z,13.30
2019-04-27T05:18:49.568Z,13.30
2019-04-27T05:21:29.458Z,13.30
2019-04-27T05:24:00.741Z,13.30
2019-04-27T05:26:31.234Z,13.30
2019-04-27T05:29:01.375Z,13.30
2019-04-27T05:31:32.194Z,13.30
2019-04-27T05:34:02.644Z,13.30
2019-04-27T05:36:32.693Z,13.30
2019-04-27T05:39:02.831Z,13.30
2019-04-27T05:41:37.380Z,13.30
2019-04-27T05:44:30.294Z,13.30
2019-04-27T05:47:34.382Z,13.30
2019-04-27T05:50:13.487Z,13.30
2019-04-27T05:52:43.325Z,13.20
2019-04-27T05:55:13.564Z,13.20
2019-04-27T05:57:43.691Z,13.20
2019-04-27T06:00:15.928Z,13.20
2019-04-27T06:02:46.095Z,13.20
2019-04-27T06:05:16.394Z,13.20
2019-04-27T06:07:46.556Z,13.10
2019-04-27T06:10:16.717Z,13.10
2019-04-27T06:12:48.596Z,13.10
2019-04-27T06:15:19.822Z,13.10
2019-04-27T06:17:50.666Z,13.10
2019-04-27T06:20:20.703Z,13.00
2019-04-27T06:22:50.794Z,13.10
2019-04-27T06:25:21.713Z,13.00
2019-04-27T06:27:52.182Z,13.00
2019-04-27T06:30:22.271Z,13.00
2019-04-27T06:32:52.347Z,13.10
2019-04-27T06:35:23.196Z,13.10
2019-04-27T06:37:54.365Z,13.10
2019-04-27T06:40:25.319Z,13.10
2019-04-27T06:42:56.523Z,13.20
2019-04-27T06:45:28.576Z,13.20
2019-04-27T06:47:59.675Z,13.20
2019-04-27T06:50:30.968Z,13.20
2019-04-27T06:53:01.937Z,13.20
2019-04-27T06:55:33.193Z,13.20
2019-04-27T06:58:04.333Z,13.20
2019-04-27T07:00:35.593Z,13.20
2019-04-27T07:03:06.498Z,13.20
2019-04-27T07:05:41.098Z,13.30
2019-04-27T07:08:12.021Z,13.20
2019-04-27T07:10:43.523Z,13.20
2019-04-27T07:13:14.905Z,13.30
2019-04-27T07:15:46.589Z,13.30
2019-04-27T07:18:18.671Z,13.30
2019-04-27T07:20:50.793Z,13.30
2019-04-27T07:23:21.515Z,13.30
2019-04-27T07:25:52.840Z,13.30
2019-04-27T07:28:23.921Z,13.30
2019-04-27T07:30:54.761Z,13.40
2019-04-27T07:33:25.843Z,13.40
2019-04-27T07:35:58.960Z,13.40
2019-04-27T07:38:30.648Z,13.40
2019-04-27T07:41:01.735Z,13.50
2019-04-27T07:44:01.670Z,13.50
2019-04-27T07:46:33.535Z,13.50
2019-04-27T07:49:04.861Z,13.50
2019-04-27T07:51:36.119Z,13.50
2019-04-27T07:54:08.978Z,13.60
2019-04-27T07:56:40.683Z,13.60
2019-04-27T07:59:12.789Z,13.70
2019-04-27T08:01:43.869Z,13.70
2019-04-27T08:04:15.392Z,13.80
2019-04-27T08:06:46.330Z,13.80
2019-04-27T08:09:17.115Z,13.80
2019-04-27T08:11:48.849Z,13.80
2019-04-27T08:14:19.637Z,13.80
2019-04-27T08:16:51.259Z,13.70
2019-04-27T08:19:22.643Z,13.80
2019-04-27T08:21:53.724Z,13.80
2019-04-27T08:24:25.045Z,13.80
2019-04-27T08:27:20.869Z,13.90
2019-04-27T08:30:03.213Z,13.80
2019-04-27T08:32:41.499Z,13.90
2019-04-27T08:35:13.656Z,13.80
2019-04-27T08:37:45.215Z,13.80
2019-04-27T08:40:16.544Z,13.80
2019-04-27T08:42:50.857Z,13.80
2019-04-27T08:45:20.324Z,13.90
2019-04-27T08:47:51.348Z,13.90
2019-04-27T08:50:22.666Z,13.90
2019-04-27T08:52:53.991Z,13.90
2019-04-27T08:55:25.080Z,14.00
2019-04-27T08:57:56.276Z,14.00
2019-04-27T09:00:29.015Z,14.00
2019-04-27T09:03:00.238Z,14.10
2019-04-27T09:05:31.360Z,14.10
2019-04-27T09:08:20.883Z,14.10
2019-04-27T09:11:11.748Z,14.20
2019-04-27T09:13:51.256Z,14.20
2019-04-27T09:16:28.926Z,14.30
2019-04-27T09:19:04.452Z,14.30
2019-04-27T09:22:15.634Z,14.30
2019-04-27T09:24:41.541Z,14.30
2019-04-27T09:27:12.380Z,14.30
2019-04-27T09:29:43.227Z,14.40
2019-04-27T09:32:14.181Z,14.40
2019-04-27T09:34:46.462Z,14.40
2019-04-27T09:37:18.755Z,14.50
2019-04-27T09:39:49.349Z,14.50
2019-04-27T09:42:20.199Z,14.50
2019-04-27T09:44:50.793Z,14.50
2019-04-27T09:47:21.576Z,14.50
2019-04-27T09:49:52.477Z,14.50
2019-04-27T09:52:26.123Z,14.50
2019-04-27T09:54:56.039Z,14.60
2019-04-27T09:57:26.934Z,14.50
2019-04-27T09:59:57.824Z,14.50
2019-04-27T10:02:29.568Z,14.60
2019-04-27T10:05:00.835Z,14.60
2019-04-27T10:07:31.854Z,14.70
2019-04-27T10:10:02.752Z,14.70
2019-04-27T10:12:34.377Z,14.70
2019-04-27T10:15:07.622Z,14.70
2019-04-27T10:17:38.584Z,14.70
2019-04-27T10:20:09.905Z,14.70
2019-04-27T10:22:43.512Z,14.70
2019-04-27T10:25:24.828Z,14.70
2019-04-27T10:27:59.591Z,14.70
2019-04-27T10:30:31.752Z,14.80
2019-04-27T10:33:03.440Z,14.90
2019-04-27T10:35:36.180Z,14.90
2019-04-27T10:38:07.643Z,14.90
2019-04-27T10:40:38.964Z,14.90
2019-04-27T10:43:10.644Z,15.00
2019-04-27T10:45:41.846Z,15.00
2019-04-27T10:48:13.286Z,14.90
2019-04-27T10:50:44.375Z,14.90
2019-04-27T10:53:16.882Z,14.90
2019-04-27T10:55:48.699Z,15.00
2019-04-27T10:58:19.657Z,15.10
2019-04-27T11:00:53.620Z,15.20
2019-04-27T11:03:43.406Z,15.30
2019-04-27T11:06:31.064Z,15.40
2019-04-27T11:09:02.264Z,15.50
2019-04-27T11:11:36.337Z,15.40
2019-04-27T11:14:07.791Z,15.30
2019-04-27T11:16:38.870Z,15.40
2019-04-27T11:19:10.029Z,15.40
2019-04-27T11:21:42.655Z,15.40
2019-04-27T11:24:13.917Z,15.50
2019-04-27T11:26:46.540Z,15.50
2019-04-27T11:29:17.767Z,15.50
2019-04-27T11:31:48.969Z,15.60
2019-04-27T11:34:21.906Z,15.60
2019-04-27T11:36:59.803Z,15.70
2019-04-27T11:39:30.970Z,15.70
2019-04-27T11:42:02.295Z,15.70
2019-04-27T11:44:33.376Z,15.80
2019-04-27T11:47:06.006Z,15.80
2019-04-27T11:49:37.399Z,15.80
2019-04-27T11:52:08.663Z,15.70
2019-04-27T11:54:39.443Z,15.80
2019-04-27T11:57:10.584Z,15.70
2019-04-27T11:59:42.029Z,15.80
2019-04-27T12:02:13.589Z,15.80
2019-04-27T12:04:44.492Z,15.80
2019-04-27T12:07:15.515Z,15.80
2019-04-27T12:09:48.246Z,15.80
2019-04-27T12:12:21.704Z,15.80
2019-04-27T12:14:52.777Z,15.80
2019-04-27T12:17:23.565Z,15.90
2019-04-27T12:19:54.663Z,15.90
2019-04-27T12:22:25.851Z,15.90
2019-04-27T12:24:56.753Z,15.90
2019-04-27T12:27:45.790Z,15.80
2019-04-27T12:30:30.298Z,15.80
2019-04-27T12:33:01.263Z,15.80
2019-04-27T12:35:32.218Z,15.70
2019-04-27T12:38:02.825Z,15.80
2019-04-27T12:40:33.663Z,15.70
2019-04-27T12:43:04.625Z,15.70
2019-04-27T12:45:36.982Z,15.70
2019-04-27T12:48:08.709Z,15.70
2019-04-27T12:50:39.911Z,15.70
2019-04-27T12:53:15.195Z,15.60
2019-04-27T12:56:13.995Z,15.60
2019-04-27T12:58:54.317Z,15.60
2019-04-27T13:01:25.850Z,15.70
2019-04-27T13:03:59.240Z,15.70
2019-04-27T13:06:29.963Z,15.70
2019-04-27T13:09:00.687Z,15.70
2019-04-27T13:11:33.027Z,15.70
2019-04-27T13:14:03.932Z,15.70
2019-04-27T13:16:34.783Z,15.70
2019-04-27T13:19:06.134Z,15.80
2019-04-27T13:21:37.297Z,15.80
2019-04-27T13:24:08.080Z,16.00
2019-04-27T13:26:39.225Z,16.10
2019-04-27T13:29:10.306Z,16.10
2019-04-27T13:31:41.024Z,16.00
2019-04-27T13:34:11.807Z,16.00
2019-04-27T13:36:42.471Z,16.00
2019-04-27T13:39:13.551Z,16.00
2019-04-27T13:41:46.159Z,16.00
2019-04-27T13:44:16.679Z,16.00
2019-04-27T13:47:25.323Z,16.00
2019-04-27T13:50:19.799Z,16.00
2019-04-27T13:52:53.405Z,16.10
2019-04-27T13:55:24.379Z,16.10
2019-04-27T13:57:55.211Z,16.10
2019-04-27T14:00:26.412Z,16.20
2019-04-27T14:02:57.373Z,16.30
2019-04-27T14:05:28.330Z,16.40
2019-04-27T14:07:59.200Z,16.50
2019-04-27T14:10:30.145Z,16.60
2019-04-27T14:13:02.060Z,16.60
2019-04-27T14:15:33.385Z,16.60
2019-04-27T14:18:04.703Z,16.70
2019-04-27T14:20:35.551Z,16.80
2019-04-27T14:23:14.431Z,16.80
2019-04-27T14:25:45.271Z,16.80
2019-04-27T14:28:15.996Z,16.90
2019-04-27T14:30:48.345Z,17.00
2019-04-27T14:33:21.038Z,17.00
2019-04-27T14:35:51.757Z,16.90
2019-04-27T14:38:22.841Z,16.90
2019-04-27T14:40:54.780Z,16.90
2019-04-27T14:43:26.091Z,16.90
2019-04-27T14:45:58.324Z,16.90
2019-04-27T14:48:30.048Z,16.80
2019-04-27T14:51:00.894Z,16.80
2019-04-27T14:53:32.095Z,16.70
2019-04-27T14:56:02.936Z,16.60
2019-04-27T14:58:33.545Z,16.60
2019-04-27T15:01:04.860Z,16.60
2019-04-27T15:03:35.583Z,16.60
2019-04-27T15:06:06.483Z,16.60
2019-04-27T15:08:38.467Z,16.50
2019-04-27T15:11:10.454Z,16.50
2019-04-27T15:13:47.910Z,16.50
2019-04-27T15:16:16.031Z,16.50
2019-04-27T15:18:52.037Z,16.50
2019-04-27T15:21:25.449Z,16.40
2019-04-27T15:23:55.424Z,16.30
2019-04-27T15:26:26.364Z,16.30
2019-04-27T15:28:59.361Z,16.30
2019-04-27T15:31:34.169Z,16.30
2019-04-27T15:34:23.364Z,16.30
2019-04-27T15:37:28.201Z,16.30
2019-04-27T15:40:30.816Z,16.30
2019-04-27T15:43:27.258Z,16.30
2019-04-27T15:45:57.595Z,16.30
2019-04-27T15:48:30.560Z,16.40
2019-04-27T15:51:03.275Z,16.40
2019-04-27T15:53:32.442Z,16.40
2019-04-27T15:56:03.226Z,16.50
2019-04-27T15:58:34.308Z,16.50
2019-04-27T16:01:09.880Z,16.50
2019-04-27T16:03:39.056Z,16.50
2019-04-27T16:06:11.883Z,16.40
2019-04-27T16:08:45.287Z,16.40
2019-04-27T16:11:16.681Z,16.40
2019-04-27T16:13:48.837Z,16.40
2019-04-27T16:16:20.165Z,16.40
2019-04-27T16:18:50.890Z,16.40
2019-04-27T16:21:22.089Z,16.40
2019-04-27T16:23:53.172Z,16.40
2019-04-27T16:26:24.132Z,16.40
2019-04-27T16:28:54.912Z,16.40
2019-04-27T16:31:31.470Z,16.40
2019-04-27T16:34:02.623Z,16.30
2019-04-27T16:36:31.461Z,16.40
2019-04-27T16:39:08.377Z,16.40
2019-04-27T16:41:41.810Z,16.40
2019-04-27T16:44:11.667Z,16.30
2019-04-27T16:46:43.265Z,16.40
2019-04-27T16:49:15.060Z,16.40
2019-04-27T16:51:45.931Z,16.30
2019-04-27T16:54:18.381Z,16.30
2019-04-27T16:56:53.028Z,16.30
2019-04-27T16:59:39.194Z,16.30
2019-04-27T17:01:54.042Z,16.30
2019-04-27T17:04:25.721Z,16.30
2019-04-27T17:06:56.566Z,16.30
2019-04-27T17:09:29.281Z,16.40
2019-04-27T17:12:00.130Z,16.30
2019-04-27T17:14:50.454Z,16.30
2019-04-27T17:17:47.074Z,16.30
2019-04-27T17:20:19.518Z,16.20
2019-04-27T17:22:50.250Z,16.20
2019-04-27T17:25:23.317Z,16.20
2019-04-27T17:28:04.140Z,16.20
2019-04-27T17:30:38.954Z,16.30
2019-04-27T17:33:11.711Z,16.30
2019-04-27T17:35:42.794Z,16.30
2019-04-27T17:38:15.874Z,16.30
2019-04-27T17:40:46.034Z,16.30
2019-04-27T17:46:22.284Z,16.30
2019-04-27T17:48:54.204Z,16.30
2019-04-27T17:51:25.284Z,16.10
2019-04-27T17:53:58.478Z,16.00
2019-04-27T17:56:35.956Z,15.80
2019-04-27T17:59:01.412Z,15.80
2019-04-27T18:01:32.743Z,15.80
2019-04-27T18:04:05.079Z,15.80
2019-04-27T18:06:35.915Z,15.80
2019-04-27T18:09:11.979Z,15.80
2019-04-27T18:11:43.538Z,15.90
2019-04-27T18:14:14.919Z,15.80
2019-04-27T18:16:45.825Z,15.80
2019-04-27T18:19:40.310Z,15.70
2019-04-27T18:22:11.275Z,15.70
2019-04-27T18:25:13.264Z,15.60
2019-04-27T18:28:15.129Z,15.40
2019-04-27T18:31:00.475Z,15.30
2019-04-27T18:33:32.677Z,15.10
2019-04-27T18:36:11.674Z,14.80
2019-04-27T18:38:39.183Z,14.60
2019-04-27T18:41:11.607Z,14.60
2019-04-27T18:43:50.832Z,14.50
2019-04-27T18:46:19.045Z,14.60
2019-04-27T18:49:06.253Z,14.60
2019-04-27T18:51:59.392Z,14.60
2019-04-27T18:54:28.837Z,14.60
2019-04-27T18:57:02.804Z,14.50
2019-04-27T18:59:32.303Z,14.60
2019-04-27T19:02:03.755Z,14.60
2019-04-27T19:04:34.597Z,14.70
2019-04-27T19:07:05.796Z,14.60
2019-04-27T19:09:37.113Z,14.60
2019-04-27T19:12:08.202Z,14.60
2019-04-27T19:14:39.399Z,14.60
2019-04-27T19:17:10.726Z,14.60
2019-04-27T19:19:42.653Z,14.60
2019-04-27T19:22:14.206Z,14.60
2019-04-27T19:24:45.168Z,14.60
2019-04-27T19:27:45.177Z,14.60
2019-04-27T19:30:28.054Z,14.70
2019-04-27T19:32:59.089Z,14.60
2019-04-27T19:35:30.893Z,14.60
2019-04-27T19:38:03.779Z,14.50
2019-04-27T19:40:34.733Z,14.50
2019-04-27T19:43:07.037Z,14.50
2019-04-27T19:45:38.839Z,14.40
2019-04-27T19:48:10.586Z,14.30
2019-04-27T19:50:41.587Z,14.30
2019-04-27T19:53:12.483Z,14.30
2019-04-27T19:55:50.957Z,14.30
2019-04-27T19:58:22.753Z,14.20
2019-04-27T20:01:11.591Z,14.20
2019-04-27T20:03:39.089Z,14.20
2019-04-27T20:06:11.369Z,14.20
2019-04-27T20:08:45.082Z,14.10
2019-04-27T20:11:17.858Z,14.10
2019-04-27T20:13:53.247Z,14.10
2019-04-27T20:16:24.345Z,14.10
2019-04-27T20:18:57.568Z,14.00
2019-04-27T20:21:30.932Z,13.90
2019-04-27T20:24:03.586Z,13.80
2019-04-27T20:26:34.547Z,13.80
2019-04-27T20:29:06.351Z,13.80
2019-04-27T20:31:37.667Z,13.80
2019-04-27T20:34:08.512Z,13.80
2019-04-27T20:36:41.408Z,13.80
2019-04-27T20:39:14.166Z,13.70
2019-04-27T20:41:45.959Z,13.70
2019-04-27T20:44:16.682Z,13.70
2019-04-27T20:46:47.517Z,13.60
2019-04-27T20:49:20.764Z,13.60
2019-04-27T20:52:00.900Z,13.60
2019-04-27T20:54:32.666Z,13.50
2019-04-27T20:57:04.323Z,13.60
2019-04-27T20:59:36.365Z,13.50
2019-04-27T21:02:24.485Z,13.50
2019-04-27T21:05:03.367Z,13.50
2019-04-27T21:07:47.790Z,13.50
2019-04-27T21:10:18.867Z,13.40
2019-04-27T21:12:51.740Z,13.40
2019-04-27T21:15:22.714Z,13.40
2019-04-27T21:17:53.673Z,13.30
2019-04-27T21:20:26.432Z,13.30
2019-04-27T21:22:57.267Z,13.30
2019-04-27T21:25:28.483Z,13.30
2019-04-27T21:28:15.641Z,13.30
2019-04-27T21:30:36.413Z,13.30
2019-04-27T21:33:08.677Z,13.30
2019-04-27T21:35:39.875Z,13.30
2019-04-27T21:38:11.686Z,13.30
2019-04-27T21:40:46.269Z,13.30
2019-04-27T21:43:21.612Z,13.30
2019-04-27T21:45:52.844Z,13.30
2019-04-27T21:48:23.567Z,13.30
2019-04-27T21:50:54.776Z,13.30
2019-04-27T21:53:43.427Z,13.20
2019-04-27T21:56:14.814Z,13.20
2019-04-27T21:58:45.781Z,13.10
2019-04-27T22:01:27.057Z,13.00
2019-04-27T22:04:01.060Z,12.90
2019-04-27T22:06:31.745Z,12.90
2019-04-27T22:09:03.184Z,12.80
2019-04-27T22:11:35.707Z,12.80
2019-04-27T22:14:06.431Z,12.80
2019-04-27T22:16:37.513Z,12.80
2019-04-27T22:19:08.955Z,12.80
2019-04-27T22:21:42.057Z,12.80
2019-04-27T22:24:37.991Z,12.80
2019-04-27T22:27:09.198Z,12.80
2019-04-27T22:29:40.597Z,12.90
2019-04-27T22:32:11.783Z,12.90
2019-04-27T22:34:43.407Z,12.90
2019-04-27T22:37:14.609Z,12.90
2019-04-27T22:39:57.747Z,12.80
2019-04-27T22:42:47.938Z,12.80
2019-04-27T22:45:22.902Z,12.70
2019-04-27T22:47:54.096Z,12.70
2019-04-27T22:50:26.009Z,12.60
2019-04-27T22:52:57.425Z,12.60
2019-04-27T22:55:28.243Z,12.50
2019-04-27T22:58:05.241Z,12.50
2019-04-27T23:00:53.585Z,12.40
2019-04-27T23:03:31.188Z,12.40
2019-04-27T23:06:02.674Z,12.30
2019-04-27T23:08:33.831Z,12.30
2019-04-27T23:11:05.095Z,12.20
2019-04-27T23:13:36.720Z,12.20
2019-04-27T23:16:11.535Z,12.20
2019-04-27T23:18:42.721Z,12.20
2019-04-27T23:21:13.741Z,12.20
2019-04-27T23:23:44.891Z,12.20
2019-04-27T23:26:15.968Z,12.20
2019-04-27T23:28:47.217Z,12.20
2019-04-27T23:31:25.733Z,12.20
2019-04-27T23:33:56.773Z,12.10
2019-04-27T23:36:27.739Z,12.10
2019-04-27T23:39:00.889Z,12.00
2019-04-27T23:41:34.100Z,11.90
2019-04-27T23:44:05.423Z,11.90
2019-04-27T23:46:36.146Z,11.90
2019-04-27T23:49:07.225Z,11.90
2019-04-27T23:51:53.003Z,11.90
2019-04-27T23:54:24.451Z,12.00
2019-04-27T23:56:55.835Z,12.00
2019-04-27T23:59:27.155Z,12.00
